sensor_id;sensor_type;location;lat;lon;timestamp;pressure;altitude;pressure_sealevel;temperature;humidity
68456;BME280;55437;55.046;38.838;2024-01-30T00:00:23;101108.53;;;0.85;65.00
68456;BME280;55437;55.046;38.838;2024-01-30T00:02:49;101111.13;;;0.87;64.77
68456;BME280;55437;55.046;38.838;2024-01-30T00:05:33;101130.50;;;0.86;64.80
68456;BME280;55437;55.046;38.838;2024-01-30T00:07:59;101149.09;;;0.88;65.04
68456;BME280;55437;55.046;38.838;2024-01-30T00:10:25;101150.03;;;0.92;64.76
68456;BME280;55437;55.046;38.838;2024-01-30T00:12:51;101147.50;;;0.92;64.82
68456;BME280;55437;55.046;38.838;2024-01-30T00:15:17;101138.31;;;0.94;64.98
68456;BME280;55437;55.046;38.838;2024-01-30T00:18:02;101139.06;;;0.91;64.76
68456;BME280;55437;55.046;38.838;2024-01-30T00:20:28;101137.53;;;0.96;64.89
68456;BME280;55437;55.046;38.838;2024-01-30T00:22:54;101150.19;;;0.98;64.89
68456;BME280;55437;55.046;38.838;2024-01-30T00:25:20;101134.59;;;1.13;64.68
68456;BME280;55437;55.046;38.838;2024-01-30T00:27:46;101129.63;;;1.16;64.46
68456;BME280;55437;55.046;38.838;2024-01-30T00:30:12;101133.06;;;1.18;64.32
68456;BME280;55437;55.046;38.838;2024-01-30T00:32:39;101128.16;;;1.24;64.41
68456;BME280;55437;55.046;38.838;2024-01-30T00:35:05;101123.84;;;1.21;64.14
68456;BME280;55437;55.046;38.838;2024-01-30T00:37:31;101117.97;;;1.21;64.42
68456;BME280;55437;55.046;38.838;2024-01-30T00:39:57;101113.72;;;1.21;64.18
68456;BME280;55437;55.046;38.838;2024-01-30T00:42:23;101098.50;;;1.18;64.58
68456;BME280;55437;55.046;38.838;2024-01-30T00:44:50;101099.13;;;1.11;64.76
68456;BME280;55437;55.046;38.838;2024-01-30T00:47:16;101084.00;;;1.13;64.62
68456;BME280;55437;55.046;38.838;2024-01-30T00:49:42;101066.25;;;1.11;64.88
68456;BME280;55437;55.046;38.838;2024-01-30T00:52:08;101062.16;;;1.15;64.58
68456;BME280;55437;55.046;38.838;2024-01-30T00:54:33;101061.00;;;1.03;64.64
68456;BME280;55437;55.046;38.838;2024-01-30T00:57:00;101069.28;;;0.98;64.81
68456;BME280;55437;55.046;38.838;2024-01-30T00:59:26;101069.22;;;0.95;64.77
68456;BME280;55437;55.046;38.838;2024-01-30T01:01:51;101073.63;;;1.02;65.05
68456;BME280;55437;55.046;38.838;2024-01-30T01:04:17;101054.31;;;1.05;64.79
68456;BME280;55437;55.046;38.838;2024-01-30T01:06:44;101056.63;;;0.98;64.60
68456;BME280;55437;55.046;38.838;2024-01-30T01:09:11;101057.41;;;0.94;65.06
68456;BME280;55437;55.046;38.838;2024-01-30T01:11:37;101068.38;;;0.94;64.83
68456;BME280;55437;55.046;38.838;2024-01-30T01:14:04;101067.50;;;0.94;65.03
68456;BME280;55437;55.046;38.838;2024-01-30T01:16:30;101058.03;;;0.87;65.14
68456;BME280;55437;55.046;38.838;2024-01-30T01:18:56;101059.69;;;0.86;64.95
68456;BME280;55437;55.046;38.838;2024-01-30T01:21:22;101064.69;;;0.83;65.07
68456;BME280;55437;55.046;38.838;2024-01-30T01:23:48;101059.50;;;0.79;65.48
68456;BME280;55437;55.046;38.838;2024-01-30T01:26:14;101069.53;;;0.76;65.30
68456;BME280;55437;55.046;38.838;2024-01-30T01:28:40;101072.91;;;0.76;65.75
68456;BME280;55437;55.046;38.838;2024-01-30T01:31:07;101071.44;;;0.83;65.38
68456;BME280;55437;55.046;38.838;2024-01-30T01:33:34;101062.22;;;0.86;65.47
68456;BME280;55437;55.046;38.838;2024-01-30T01:36:00;101052.16;;;0.88;65.04
68456;BME280;55437;55.046;38.838;2024-01-30T01:38:28;101060.69;;;0.91;65.18
68456;BME280;55437;55.046;38.838;2024-01-30T01:40:54;101056.50;;;0.92;65.38
68456;BME280;55437;55.046;38.838;2024-01-30T01:43:20;101058.13;;;0.90;65.31
68456;BME280;55437;55.046;38.838;2024-01-30T01:45:46;101054.06;;;0.95;65.40
68456;BME280;55437;55.046;38.838;2024-01-30T01:48:12;101050.72;;;0.97;65.37
68456;BME280;55437;55.046;38.838;2024-01-30T01:50:57;101049.94;;;1.00;65.41
68456;BME280;55437;55.046;38.838;2024-01-30T01:53:24;101051.66;;;1.01;65.05
68456;BME280;55437;55.046;38.838;2024-01-30T01:55:50;101056.81;;;1.04;65.40
68456;BME280;55437;55.046;38.838;2024-01-30T01:58:19;101058.44;;;1.02;65.30
68456;BME280;55437;55.046;38.838;2024-01-30T02:00:46;101059.09;;;0.95;65.52
68456;BME280;55437;55.046;38.838;2024-01-30T02:03:13;101050.72;;;0.97;65.55
68456;BME280;55437;55.046;38.838;2024-01-30T02:05:41;101049.09;;;0.99;65.53
68456;BME280;55437;55.046;38.838;2024-01-30T02:08:11;101038.94;;;0.98;65.32
68456;BME280;55437;55.046;38.838;2024-01-30T02:10:37;101053.25;;;0.97;65.83
68456;BME280;55437;55.046;38.838;2024-01-30T02:13:02;101034.69;;;0.97;65.79
68456;BME280;55437;55.046;38.838;2024-01-30T02:15:28;101043.28;;;1.02;65.71
68456;BME280;55437;55.046;38.838;2024-01-30T02:17:55;101042.50;;;1.04;65.43
68456;BME280;55437;55.046;38.838;2024-01-30T02:20:41;101051.09;;;1.11;65.43
68456;BME280;55437;55.046;38.838;2024-01-30T02:23:09;101045.22;;;1.12;65.29
68456;BME280;55437;55.046;38.838;2024-01-30T02:25:39;101041.78;;;1.08;65.28
68456;BME280;55437;55.046;38.838;2024-01-30T02:28:13;101040.97;;;1.11;65.32
68456;BME280;55437;55.046;38.838;2024-01-30T02:30:43;101029.13;;;1.10;65.28
68456;BME280;55437;55.046;38.838;2024-01-30T02:33:08;101037.53;;;1.09;65.33
68456;BME280;55437;55.046;38.838;2024-01-30T02:35:34;101033.16;;;1.02;65.20
68456;BME280;55437;55.046;38.838;2024-01-30T02:38:01;101025.34;;;0.93;65.66
68456;BME280;55437;55.046;38.838;2024-01-30T02:40:27;101031.22;;;0.92;65.59
68456;BME280;55437;55.046;38.838;2024-01-30T02:42:54;101037.94;;;0.91;65.87
68456;BME280;55437;55.046;38.838;2024-01-30T02:45:20;101032.03;;;0.91;65.70
68456;BME280;55437;55.046;38.838;2024-01-30T02:47:46;101030.50;;;0.97;66.01
68456;BME280;55437;55.046;38.838;2024-01-30T02:50:12;101024.63;;;0.98;65.66
68456;BME280;55437;55.046;38.838;2024-01-30T02:52:39;101026.28;;;0.96;65.66
68456;BME280;55437;55.046;38.838;2024-01-30T02:55:05;101021.28;;;0.99;65.61
68456;BME280;55437;55.046;38.838;2024-01-30T02:57:31;101026.59;;;1.08;65.66
68456;BME280;55437;55.046;38.838;2024-01-30T02:59:57;101028.44;;;1.16;65.34
68456;BME280;55437;55.046;38.838;2024-01-30T03:02:23;101018.19;;;1.11;65.46
68456;BME280;55437;55.046;38.838;2024-01-30T03:04:49;101030.84;;;1.11;65.39
68456;BME280;55437;55.046;38.838;2024-01-30T03:07:16;101022.25;;;1.04;65.80
68456;BME280;55437;55.046;38.838;2024-01-30T03:09:42;101027.28;;;1.03;65.90
68456;BME280;55437;55.046;38.838;2024-01-30T03:12:09;101034.06;;;1.04;65.78
68456;BME280;55437;55.046;38.838;2024-01-30T03:14:35;101033.16;;;1.02;66.01
68456;BME280;55437;55.046;38.838;2024-01-30T03:17:03;101038.06;;;0.97;65.88
68456;BME280;55437;55.046;38.838;2024-01-30T03:19:29;101034.69;;;0.95;66.21
68456;BME280;55437;55.046;38.838;2024-01-30T03:21:55;101043.97;;;0.96;66.21
68456;BME280;55437;55.046;38.838;2024-01-30T03:24:21;101038.94;;;0.98;66.19
68456;BME280;55437;55.046;38.838;2024-01-30T03:26:47;101039.75;;;0.95;66.37
68456;BME280;55437;55.046;38.838;2024-01-30T03:29:13;101038.16;;;1.00;66.47
68456;BME280;55437;55.046;38.838;2024-01-30T03:31:39;101031.34;;;0.96;66.58
68456;BME280;55437;55.046;38.838;2024-01-30T03:34:05;101028.94;;;1.02;66.47
68456;BME280;55437;55.046;38.838;2024-01-30T03:36:31;101019.59;;;1.00;66.84
68456;BME280;55437;55.046;38.838;2024-01-30T03:39:00;101023.03;;;1.02;66.55
68456;BME280;55437;55.046;38.838;2024-01-30T03:41:27;101020.59;;;1.05;66.74
68456;BME280;55437;55.046;38.838;2024-01-30T03:43:53;101020.72;;;1.11;66.94
68456;BME280;55437;55.046;38.838;2024-01-30T03:46:19;101020.03;;;1.17;66.63
68456;BME280;55437;55.046;38.838;2024-01-30T03:48:47;101016.66;;;1.16;66.85
68456;BME280;55437;55.046;38.838;2024-01-30T03:51:13;101015.94;;;1.20;66.57
68456;BME280;55437;55.046;38.838;2024-01-30T03:53:42;101015.97;;;1.23;66.54
68456;BME280;55437;55.046;38.838;2024-01-30T03:56:08;101018.75;;;1.32;66.16
68456;BME280;55437;55.046;38.838;2024-01-30T03:58:34;101025.53;;;1.35;66.22
68456;BME280;55437;55.046;38.838;2024-01-30T04:01:00;101025.69;;;1.41;66.45
68456;BME280;55437;55.046;38.838;2024-01-30T04:03:27;101039.47;;;1.52;66.22
68456;BME280;55437;55.046;38.838;2024-01-30T04:05:53;101043.81;;;1.58;66.23
68456;BME280;55437;55.046;38.838;2024-01-30T04:08:20;101038.59;;;1.52;66.10
68456;BME280;55437;55.046;38.838;2024-01-30T04:10:46;101048.81;;;1.55;66.07
68456;BME280;55437;55.046;38.838;2024-01-30T04:13:13;101053.09;;;1.59;66.24
68456;BME280;55437;55.046;38.838;2024-01-30T04:15:39;101050.00;;;1.69;65.88
68456;BME280;55437;55.046;38.838;2024-01-30T04:18:05;101057.69;;;1.73;65.90
68456;BME280;55437;55.046;38.838;2024-01-30T04:20:31;101056.16;;;1.80;65.90
68456;BME280;55437;55.046;38.838;2024-01-30T04:22:57;101048.56;;;1.81;65.81
68456;BME280;55437;55.046;38.838;2024-01-30T04:25:23;101050.31;;;1.84;65.65
68456;BME280;55437;55.046;38.838;2024-01-30T04:27:49;101045.22;;;1.81;65.88
68456;BME280;55437;55.046;38.838;2024-01-30T04:30:15;101050.28;;;1.83;66.09
68456;BME280;55437;55.046;38.838;2024-01-30T04:32:41;101041.84;;;1.82;65.75
68456;BME280;55437;55.046;38.838;2024-01-30T04:35:07;101041.13;;;1.88;65.91
68456;BME280;55437;55.046;38.838;2024-01-30T04:37:33;101044.66;;;1.94;65.80
68456;BME280;55437;55.046;38.838;2024-01-30T04:39:58;101042.16;;;1.96;65.60
68456;BME280;55437;55.046;38.838;2024-01-30T04:42:24;101038.91;;;2.01;65.36
68456;BME280;55437;55.046;38.838;2024-01-30T04:44:50;101038.88;;;2.00;65.46
68456;BME280;55437;55.046;38.838;2024-01-30T04:47:16;101035.59;;;2.04;65.54
68456;BME280;55437;55.046;38.838;2024-01-30T04:49:42;101039.03;;;2.07;65.49
68456;BME280;55437;55.046;38.838;2024-01-30T04:52:08;101049.22;;;2.10;65.63
68456;BME280;55437;55.046;38.838;2024-01-30T04:54:35;101052.78;;;2.17;65.33
68456;BME280;55437;55.046;38.838;2024-01-30T04:57:02;101058.00;;;2.25;65.24
68456;BME280;55437;55.046;38.838;2024-01-30T04:59:28;101058.84;;;2.25;65.27
68456;BME280;55437;55.046;38.838;2024-01-30T05:01:54;101061.34;;;2.24;65.43
68456;BME280;55437;55.046;38.838;2024-01-30T05:04:20;101062.31;;;2.30;65.09
68456;BME280;55437;55.046;38.838;2024-01-30T05:06:47;101063.25;;;2.34;64.82
68456;BME280;55437;55.046;38.838;2024-01-30T05:09:13;101057.50;;;2.41;64.86
68456;BME280;55437;55.046;38.838;2024-01-30T05:11:40;101057.59;;;2.47;64.87
68456;BME280;55437;55.046;38.838;2024-01-30T05:14:07;101061.81;;;2.46;64.98
68456;BME280;55437;55.046;38.838;2024-01-30T05:16:34;101055.06;;;2.47;65.03
68456;BME280;55437;55.046;38.838;2024-01-30T05:19:00;101051.78;;;2.51;65.01
68456;BME280;55437;55.046;38.838;2024-01-30T05:21:26;101050.00;;;2.47;64.77
68456;BME280;55437;55.046;38.838;2024-01-30T05:23:53;101045.81;;;2.49;64.90
68456;BME280;55437;55.046;38.838;2024-01-30T05:26:18;101046.78;;;2.56;64.99
68456;BME280;55437;55.046;38.838;2024-01-30T05:28:44;101048.53;;;2.58;64.82
68456;BME280;55437;55.046;38.838;2024-01-30T05:31:10;101053.72;;;2.63;65.00
68456;BME280;55437;55.046;38.838;2024-01-30T05:33:36;101046.88;;;2.60;64.75
68456;BME280;55437;55.046;38.838;2024-01-30T05:36:03;101052.00;;;2.62;64.93
68456;BME280;55437;55.046;38.838;2024-01-30T05:38:29;101058.88;;;2.69;64.77
68456;BME280;55437;55.046;38.838;2024-01-30T05:40:55;101061.56;;;2.75;64.63
68456;BME280;55437;55.046;38.838;2024-01-30T05:43:23;101054.19;;;2.87;64.86
68456;BME280;55437;55.046;38.838;2024-01-30T05:45:50;101070.31;;;2.92;64.56
68456;BME280;55437;55.046;38.838;2024-01-30T05:48:17;101068.72;;;2.97;64.47
68456;BME280;55437;55.046;38.838;2024-01-30T05:50:43;101076.41;;;3.00;64.15
68456;BME280;55437;55.046;38.838;2024-01-30T05:53:09;101084.81;;;2.98;64.58
68456;BME280;55437;55.046;38.838;2024-01-30T05:55:34;101083.06;;;2.95;64.61
68456;BME280;55437;55.046;38.838;2024-01-30T05:58:00;101086.47;;;2.96;64.60
68456;BME280;55437;55.046;38.838;2024-01-30T06:00:26;101087.50;;;3.07;64.30
68456;BME280;55437;55.046;38.838;2024-01-30T06:02:52;101074.88;;;3.10;64.50
68456;BME280;55437;55.046;38.838;2024-01-30T06:05:18;101082.56;;;3.13;64.16
68456;BME280;55437;55.046;38.838;2024-01-30T06:07:44;101087.66;;;3.16;64.01
68456;BME280;55437;55.046;38.838;2024-01-30T06:10:10;101097.06;;;3.20;64.03
68456;BME280;55437;55.046;38.838;2024-01-30T06:12:37;101092.84;;;3.20;64.06
68456;BME280;55437;55.046;38.838;2024-01-30T06:15:04;101091.25;;;3.27;64.13
68456;BME280;55437;55.046;38.838;2024-01-30T06:17:31;101092.97;;;3.28;63.89
68456;BME280;55437;55.046;38.838;2024-01-30T06:19:58;101094.88;;;3.41;63.62
68456;BME280;55437;55.046;38.838;2024-01-30T06:22:25;101088.25;;;3.48;63.64
68456;BME280;55437;55.046;38.838;2024-01-30T06:24:52;101092.53;;;3.52;63.44
68456;BME280;55437;55.046;38.838;2024-01-30T06:27:18;101094.25;;;3.53;63.39
68456;BME280;55437;55.046;38.838;2024-01-30T06:29:44;101095.94;;;3.52;63.56
68456;BME280;55437;55.046;38.838;2024-01-30T06:32:11;101096.00;;;3.57;63.78
68456;BME280;55437;55.046;38.838;2024-01-30T06:34:40;101084.19;;;3.59;63.35
68456;BME280;55437;55.046;38.838;2024-01-30T06:37:06;101085.91;;;3.60;63.59
68456;BME280;55437;55.046;38.838;2024-01-30T06:39:32;101090.16;;;3.62;63.53
68456;BME280;55437;55.046;38.838;2024-01-30T06:41:59;101086.84;;;3.67;63.48
68456;BME280;55437;55.046;38.838;2024-01-30T06:44:25;101087.78;;;3.70;63.34
68456;BME280;55437;55.046;38.838;2024-01-30T06:46:51;101092.75;;;3.66;63.48
68456;BME280;55437;55.046;38.838;2024-01-30T06:49:16;101090.25;;;3.67;63.38
68456;BME280;55437;55.046;38.838;2024-01-30T06:51:42;101092.00;;;3.70;63.30
68456;BME280;55437;55.046;38.838;2024-01-30T06:54:08;101088.69;;;3.77;63.47
68456;BME280;55437;55.046;38.838;2024-01-30T06:56:59;101095.50;;;3.78;63.25
68456;BME280;55437;55.046;38.838;2024-01-30T06:59:25;101092.13;;;3.79;63.32
68456;BME280;55437;55.046;38.838;2024-01-30T07:01:51;101092.06;;;3.74;63.43
68456;BME280;55437;55.046;38.838;2024-01-30T07:04:17;101092.06;;;3.73;63.26
68456;BME280;55437;55.046;38.838;2024-01-30T07:06:44;101092.06;;;3.73;63.75
68456;BME280;55437;55.046;38.838;2024-01-30T07:09:10;101088.59;;;3.69;63.57
68456;BME280;55437;55.046;38.838;2024-01-30T07:11:36;101085.19;;;3.69;63.68
68456;BME280;55437;55.046;38.838;2024-01-30T07:14:01;101092.06;;;3.76;63.74
68456;BME280;55437;55.046;38.838;2024-01-30T07:16:30;101080.41;;;3.85;63.80
68456;BME280;55437;55.046;38.838;2024-01-30T07:18:56;101088.94;;;3.92;63.50
68456;BME280;55437;55.046;38.838;2024-01-30T07:21:22;101088.16;;;3.96;63.25
68456;BME280;55437;55.046;38.838;2024-01-30T07:23:57;101087.28;;;3.94;63.72
68456;BME280;55437;55.046;38.838;2024-01-30T07:26:23;101090.00;;;4.06;63.58
68456;BME280;55437;55.046;38.838;2024-01-30T07:28:49;101105.28;;;4.08;63.47
68456;BME280;55437;55.046;38.838;2024-01-30T07:31:16;101091.88;;;4.18;63.43
68456;BME280;55437;55.046;38.838;2024-01-30T07:33:43;101094.31;;;4.10;63.38
68456;BME280;55437;55.046;38.838;2024-01-30T07:36:09;101105.19;;;4.02;63.62
68456;BME280;55437;55.046;38.838;2024-01-30T07:38:36;101108.59;;;4.04;63.65
68456;BME280;55437;55.046;38.838;2024-01-30T07:41:03;101112.88;;;4.06;63.62
68456;BME280;55437;55.046;38.838;2024-01-30T07:43:29;101109.69;;;4.19;63.43
68456;BME280;55437;55.046;38.838;2024-01-30T07:45:54;101107.28;;;4.30;63.35
68456;BME280;55437;55.046;38.838;2024-01-30T07:48:21;101096.47;;;4.43;63.06
68456;BME280;55437;55.046;38.838;2024-01-30T07:50:47;101094.09;;;4.57;62.81
68456;BME280;55437;55.046;38.838;2024-01-30T07:53:12;101097.63;;;4.68;62.65
68456;BME280;55437;55.046;38.838;2024-01-30T07:55:57;101096.00;;;4.75;62.34
68456;BME280;55437;55.046;38.838;2024-01-30T07:58:41;101089.22;;;4.75;62.48
68456;BME280;55437;55.046;38.838;2024-01-30T08:01:07;101091.81;;;4.80;62.34
68456;BME280;55437;55.046;38.838;2024-01-30T08:03:33;101096.88;;;4.78;62.27
68456;BME280;55437;55.046;38.838;2024-01-30T08:06:00;101092.56;;;4.72;62.29
68456;BME280;55437;55.046;38.838;2024-01-30T08:08:28;101096.00;;;4.76;62.53
68456;BME280;55437;55.046;38.838;2024-01-30T08:11:01;101092.53;;;4.68;62.40
68456;BME280;55437;55.046;38.838;2024-01-30T08:13:27;101084.91;;;4.68;62.57
68456;BME280;55437;55.046;38.838;2024-01-30T08:15:53;101084.09;;;4.74;62.44
68456;BME280;55437;55.046;38.838;2024-01-30T08:18:21;101085.03;;;4.80;62.45
68456;BME280;55437;55.046;38.838;2024-01-30T08:20:47;101095.22;;;4.80;62.26
68456;BME280;55437;55.046;38.838;2024-01-30T08:23:14;101087.56;;;4.79;62.38
68456;BME280;55437;55.046;38.838;2024-01-30T08:25:40;101092.53;;;4.71;62.25
68456;BME280;55437;55.046;38.838;2024-01-30T08:28:06;101084.84;;;4.65;62.56
68456;BME280;55437;55.046;38.838;2024-01-30T08:30:33;101092.53;;;4.68;62.57
68456;BME280;55437;55.046;38.838;2024-01-30T08:33:02;101085.03;;;4.80;62.33
68456;BME280;55437;55.046;38.838;2024-01-30T08:35:28;101088.44;;;4.81;62.38
68456;BME280;55437;55.046;38.838;2024-01-30T08:37:57;101078.22;;;4.78;62.42
68456;BME280;55437;55.046;38.838;2024-01-30T08:40:22;101084.06;;;4.72;62.53
68456;BME280;55437;55.046;38.838;2024-01-30T08:42:48;101074.69;;;4.66;62.39
68456;BME280;55437;55.046;38.838;2024-01-30T08:45:14;101086.59;;;4.69;62.49
68456;BME280;55437;55.046;38.838;2024-01-30T08:47:40;101075.66;;;4.76;62.38
68456;BME280;55437;55.046;38.838;2024-01-30T08:50:07;101075.78;;;4.88;62.17
68456;BME280;55437;55.046;38.838;2024-01-30T08:52:33;101076.72;;;4.93;62.17
68456;BME280;55437;55.046;38.838;2024-01-30T08:55:00;101073.25;;;4.88;62.14
68456;BME280;55437;55.046;38.838;2024-01-30T08:57:26;101061.31;;;4.84;62.13
68456;BME280;55437;55.046;38.838;2024-01-30T08:59:55;101071.47;;;4.80;62.10
68456;BME280;55437;55.046;38.838;2024-01-30T09:02:20;101074.88;;;4.82;62.42
68456;BME280;55437;55.046;38.838;2024-01-30T09:04:46;101069.78;;;4.83;61.99
68456;BME280;55437;55.046;38.838;2024-01-30T09:07:31;101063.03;;;4.85;62.10
68456;BME280;55437;55.046;38.838;2024-01-30T09:09:57;101075.06;;;4.98;61.77
68456;BME280;55437;55.046;38.838;2024-01-30T09:12:23;101069.16;;;5.01;61.70
68456;BME280;55437;55.046;38.838;2024-01-30T09:14:49;101082.00;;;5.13;61.68
68456;BME280;55437;55.046;38.838;2024-01-30T09:17:15;101074.41;;;5.18;61.31
68456;BME280;55437;55.046;38.838;2024-01-30T09:19:41;101082.06;;;5.21;61.27
68456;BME280;55437;55.046;38.838;2024-01-30T09:22:07;101074.34;;;5.12;61.52
68456;BME280;55437;55.046;38.838;2024-01-30T09:24:33;101078.47;;;5.00;61.44
68456;BME280;55437;55.046;38.838;2024-01-30T09:27:18;101075.06;;;4.98;61.60
68456;BME280;55437;55.046;38.838;2024-01-30T09:29:43;101076.72;;;4.95;61.81
68456;BME280;55437;55.046;38.838;2024-01-30T09:32:30;101079.16;;;4.87;61.75
68456;BME280;55437;55.046;38.838;2024-01-30T09:34:56;101075.06;;;4.98;61.87
68456;BME280;55437;55.046;38.838;2024-01-30T09:37:22;101079.41;;;5.08;61.84
68456;BME280;55437;55.046;38.838;2024-01-30T09:39:49;101075.16;;;5.09;61.65
68456;BME280;55437;55.046;38.838;2024-01-30T09:42:36;101072.63;;;5.11;61.51
68456;BME280;55437;55.046;38.838;2024-01-30T09:45:03;101080.25;;;5.06;61.52
68456;BME280;55437;55.046;38.838;2024-01-30T09:47:41;101070.88;;;5.03;61.69
68456;BME280;55437;55.046;38.838;2024-01-30T09:50:27;101081.00;;;4.99;61.86
68456;BME280;55437;55.046;38.838;2024-01-30T09:52:55;101076.00;;;5.06;61.66
68456;BME280;55437;55.046;38.838;2024-01-30T09:55:23;101079.44;;;5.13;61.63
68456;BME280;55437;55.046;38.838;2024-01-30T09:57:49;101069.25;;;5.12;61.46
68456;BME280;55437;55.046;38.838;2024-01-30T10:00:15;101070.91;;;5.05;61.71
68456;BME280;55437;55.046;38.838;2024-01-30T10:02:41;101069.09;;;4.98;61.67
68456;BME280;55437;55.046;38.838;2024-01-30T10:05:08;101082.56;;;4.88;62.17
68456;BME280;55437;55.046;38.838;2024-01-30T10:07:34;101086.88;;;4.92;62.16
68456;BME280;55437;55.046;38.838;2024-01-30T10:10:01;101079.28;;;4.95;62.00
68456;BME280;55437;55.046;38.838;2024-01-30T10:12:29;101085.19;;;4.92;62.28
68456;BME280;55437;55.046;38.838;2024-01-30T10:14:56;101085.28;;;5.01;62.04
68456;BME280;55437;55.046;38.838;2024-01-30T10:17:25;101079.31;;;5.01;61.77
68456;BME280;55437;55.046;38.838;2024-01-30T10:19:54;101073.47;;;5.06;62.00
68456;BME280;55437;55.046;38.838;2024-01-30T10:22:20;101079.41;;;5.07;61.89
68456;BME280;55437;55.046;38.838;2024-01-30T10:24:46;101071.03;;;5.22;61.56
68456;BME280;55437;55.046;38.838;2024-01-30T10:27:13;101072.84;;;5.33;61.31
68456;BME280;55437;55.046;38.838;2024-01-30T10:29:40;101086.41;;;5.32;61.18
68456;BME280;55437;55.046;38.838;2024-01-30T10:32:06;101083.03;;;5.33;61.18
68456;BME280;55437;55.046;38.838;2024-01-30T10:34:34;101088.25;;;5.47;60.86
68456;BME280;55437;55.046;38.838;2024-01-30T10:37:10;101076.44;;;5.54;60.89
68456;BME280;55437;55.046;38.838;2024-01-30T10:39:46;101080.69;;;5.56;60.70
68456;BME280;55437;55.046;38.838;2024-01-30T10:42:38;101088.34;;;5.58;60.72
68456;BME280;55437;55.046;38.838;2024-01-30T10:45:09;101084.09;;;5.58;60.58
68456;BME280;55437;55.046;38.838;2024-01-30T10:47:40;101085.03;;;5.65;60.50
68456;BME280;55437;55.046;38.838;2024-01-30T10:50:08;101071.44;;;5.69;60.41
68456;BME280;55437;55.046;38.838;2024-01-30T10:52:34;101088.44;;;5.67;60.24
68456;BME280;55437;55.046;38.838;2024-01-30T10:55:01;101087.53;;;5.60;60.51
68456;BME280;55437;55.046;38.838;2024-01-30T10:57:31;101084.94;;;5.56;60.69
68456;BME280;55437;55.046;38.838;2024-01-30T11:00:00;101088.34;;;5.59;60.65
68456;BME280;55437;55.046;38.838;2024-01-30T11:02:30;101090.84;;;5.50;60.76
68456;BME280;55437;55.046;38.838;2024-01-30T11:04:59;101094.28;;;5.55;60.77
68456;BME280;55437;55.046;38.838;2024-01-30T11:07:27;101095.09;;;5.51;60.59
68456;BME280;55437;55.046;38.838;2024-01-30T11:10:00;101089.09;;;5.48;60.60
68456;BME280;55437;55.046;38.838;2024-01-30T11:12:27;101096.72;;;5.46;60.92
68456;BME280;55437;55.046;38.838;2024-01-30T11:17:53;101102.88;;;5.69;60.59
68456;BME280;55437;55.046;38.838;2024-01-30T11:20:27;101096.19;;;5.79;60.16
68456;BME280;55437;55.046;38.838;2024-01-30T11:22:57;101087.69;;;5.78;59.88
68456;BME280;55437;55.046;38.838;2024-01-30T11:25:24;101100.38;;;5.74;60.16
68456;BME280;55437;55.046;38.838;2024-01-30T11:27:54;101086.72;;;5.69;60.36
68456;BME280;55437;55.046;38.838;2024-01-30T11:30:28;101090.16;;;5.72;60.05
68456;BME280;55437;55.046;38.838;2024-01-30T11:33:05;101088.53;;;5.77;60.15
68456;BME280;55437;55.046;38.838;2024-01-30T11:35:50;101100.41;;;5.77;60.20
68456;BME280;55437;55.046;38.838;2024-01-30T11:38:16;101085.13;;;5.80;60.18
68456;BME280;55437;55.046;38.838;2024-01-30T11:40:43;101086.84;;;5.84;59.85
68456;BME280;55437;55.046;38.838;2024-01-30T11:43:09;101086.03;;;5.87;60.07
68456;BME280;55437;55.046;38.838;2024-01-30T11:45:37;101089.34;;;5.76;60.20
68456;BME280;55437;55.046;38.838;2024-01-30T11:48:03;101099.47;;;5.64;60.48
68456;BME280;55437;55.046;38.838;2024-01-30T11:50:55;101089.28;;;5.67;60.04
68456;BME280;55437;55.046;38.838;2024-01-30T11:53:21;101083.28;;;5.61;60.25
68456;BME280;55437;55.046;38.838;2024-01-30T11:55:51;101078.22;;;5.65;60.44
68456;BME280;55437;55.046;38.838;2024-01-30T11:58:17;101087.59;;;5.69;60.56
68456;BME280;55437;55.046;38.838;2024-01-30T12:00:43;101092.66;;;5.68;60.57
68456;BME280;55437;55.046;38.838;2024-01-30T12:03:18;101086.66;;;5.60;60.31
68456;BME280;55437;55.046;38.838;2024-01-30T12:05:43;101091.81;;;5.66;60.38
68456;BME280;55437;55.046;38.838;2024-01-30T12:08:17;101091.75;;;5.55;60.60
68456;BME280;55437;55.046;38.838;2024-01-30T12:10:42;101092.53;;;5.51;60.61
68456;BME280;55437;55.046;38.838;2024-01-30T12:13:08;101096.81;;;5.57;60.80
68456;BME280;55437;55.046;38.838;2024-01-30T12:15:35;101088.31;;;5.56;60.77
68456;BME280;55437;55.046;38.838;2024-01-30T12:18:05;101083.19;;;5.50;60.69
68456;BME280;55437;55.046;38.838;2024-01-30T12:20:31;101095.13;;;5.54;60.79
68456;BME280;55437;55.046;38.838;2024-01-30T12:22:57;101099.25;;;5.44;61.06
68456;BME280;55437;55.046;38.838;2024-01-30T12:25:25;101103.50;;;5.41;61.08
68456;BME280;55437;55.046;38.838;2024-01-30T12:27:51;101112.81;;;5.39;61.09
68456;BME280;55437;55.046;38.838;2024-01-30T12:30:19;101116.16;;;5.35;61.22
68456;BME280;55437;55.046;38.838;2024-01-30T12:32:46;101111.03;;;5.32;61.43
68456;BME280;55437;55.046;38.838;2024-01-30T12:35:15;101123.78;;;5.35;61.44
68456;BME280;55437;55.046;38.838;2024-01-30T12:37:43;101117.06;;;5.40;61.30
68456;BME280;55437;55.046;38.838;2024-01-30T12:40:10;101126.41;;;5.41;61.42
68456;BME280;55437;55.046;38.838;2024-01-30T12:42:37;101130.69;;;5.47;61.29
68456;BME280;55437;55.046;38.838;2024-01-30T12:45:04;101139.91;;;5.32;61.58
68456;BME280;55437;55.046;38.838;2024-01-30T12:47:32;101132.19;;;5.25;61.74
68456;BME280;55437;55.046;38.838;2024-01-30T12:49:58;101134.69;;;5.22;61.77
68456;BME280;55437;55.046;38.838;2024-01-30T12:52:24;101140.63;;;5.22;61.59
68456;BME280;55437;55.046;38.838;2024-01-30T12:54:54;101135.56;;;5.24;61.78